Time;durP1;ratioP1;P1;durP2;ratioP2;P2;SDS_P1;SDS_P2;PMS_P1;PMS_P2;Temp;Humidity;BMP_temperature;BMP_pressure;BME280_temperature;BME280_humidity;BME280_pressure;Samples;Min_cycle;Max_cycle;Signal;HPM_P1;HPM_P2
2024/03/22 00:01:02;;;;;;;45.55;30.65;;;;;;;10.59;100.00;102000.94;5041729;28;20038;-65
2024/03/22 00:03:29;;;;;;;46.33;31.05;;;;;;;10.60;100.00;102002.72;5043331;28;20087;-65
2024/03/22 00:05:54;;;;;;;44.05;29.05;;;;;;;10.63;100.00;101997.53;5039488;28;20032;-65
2024/03/22 00:08:20;;;;;;;45.72;31.08;;;;;;;10.64;100.00;101983.41;5043728;28;20053;-65
2024/03/22 00:10:45;;;;;;;45.80;31.05;;;;;;;10.68;100.00;101994.97;5040887;28;20101;-66
2024/03/22 00:13:10;;;;;;;45.95;30.52;;;;;;;10.68;100.00;101989.69;5042574;28;20025;-64
2024/03/22 00:15:36;;;;;;;45.38;31.02;;;;;;;10.70;100.00;102007.34;5040919;28;20025;-65
2024/03/22 00:18:02;;;;;;;45.85;31.05;;;;;;;10.75;100.00;101991.59;5041531;28;20033;-65
2024/03/22 00:20:27;;;;;;;45.22;31.50;;;;;;;10.80;100.00;101997.88;5043340;28;20029;-64
2024/03/22 00:22:53;;;;;;;46.72;30.52;;;;;;;10.82;100.00;101991.78;5038827;28;20427;-65
2024/03/22 00:25:18;;;;;;;45.22;31.17;;;;;;;10.83;100.00;101984.72;5044804;28;20056;-65
2024/03/22 00:27:43;;;;;;;45.17;31.45;;;;;;;10.85;100.00;101985.66;5044393;28;20048;-65
2024/03/22 00:30:09;;;;;;;43.75;30.50;;;;;;;10.84;100.00;101986.50;5046224;28;20030;-65
2024/03/22 00:32:34;;;;;;;45.60;31.25;;;;;;;10.85;100.00;101990.03;5044600;28;20036;-64
2024/03/22 00:35:00;;;;;;;45.22;30.65;;;;;;;10.88;100.00;101976.88;5044794;28;20148;-64
2024/03/22 00:37:25;;;;;;;45.85;32.30;;;;;;;10.89;100.00;101973.38;5046720;28;20029;-64
2024/03/22 00:39:50;;;;;;;44.55;30.52;;;;;;;10.89;100.00;101969.00;5043791;28;20033;-64
2024/03/22 00:42:16;;;;;;;45.80;32.60;;;;;;;10.88;100.00;101966.28;5045289;28;20029;-64
2024/03/22 00:44:41;;;;;;;44.10;30.33;;;;;;;10.90;100.00;101962.81;5044431;28;20047;-65
2024/03/22 00:47:06;;;;;;;43.83;30.48;;;;;;;10.91;100.00;101953.16;5045565;28;20022;-65
2024/03/22 00:49:32;;;;;;;43.42;29.98;;;;;;;10.95;100.00;101947.03;5045508;28;20029;-64
2024/03/22 00:51:57;;;;;;;43.10;30.27;;;;;;;10.93;100.00;101938.19;5043820;28;20030;-65
2024/03/22 00:54:23;;;;;;;43.10;29.92;;;;;;;10.94;100.00;101938.22;5045678;28;20029;-65
2024/03/22 00:56:48;;;;;;;43.15;30.50;;;;;;;10.94;100.00;101925.00;5043265;28;20124;-68
2024/03/22 00:59:13;;;;;;;43.42;29.80;;;;;;;10.93;100.00;101931.13;5046269;28;20199;-64
2024/03/22 01:01:39;;;;;;;44.15;29.70;;;;;;;10.91;100.00;101908.19;5044484;28;20047;-64
2024/03/22 01:04:04;;;;;;;43.50;29.65;;;;;;;11.00;100.00;101905.69;5044478;28;20030;-64
2024/03/22 01:06:29;;;;;;;44.72;31.02;;;;;;;11.00;100.00;101903.06;5046129;28;20111;-65
2024/03/22 01:08:55;;;;;;;43.20;30.30;;;;;;;11.02;100.00;101898.66;5041807;28;20033;-65
2024/03/22 01:11:20;;;;;;;43.05;30.05;;;;;;;11.02;100.00;101901.31;5046491;28;20025;-65
2024/03/22 01:13:45;;;;;;;44.00;30.45;;;;;;;10.97;100.00;101893.31;5043556;28;20030;-66
2024/03/22 01:16:11;;;;;;;43.05;30.42;;;;;;;10.97;100.00;101887.13;5045077;28;20476;-66
2024/03/22 01:18:37;;;;;;;42.80;30.88;;;;;;;11.00;100.00;101887.19;5045452;28;20163;-74
2024/03/22 01:21:02;;;;;;;42.85;30.23;;;;;;;10.99;100.00;101874.81;5045011;28;20036;-72
2024/03/22 01:23:28;;;;;;;43.85;31.65;;;;;;;11.00;100.00;101884.53;5046540;28;20061;-66
2024/03/22 01:25:53;;;;;;;42.70;30.33;;;;;;;10.96;100.00;101880.03;5043109;28;20175;-65
2024/03/22 01:28:19;;;;;;;42.35;29.50;;;;;;;10.97;100.00;101897.72;5045099;28;20052;-65
2024/03/22 01:30:44;;;;;;;43.63;30.73;;;;;;;10.98;100.00;101896.84;5043578;28;20073;-67
2024/03/22 01:33:09;;;;;;;42.45;29.60;;;;;;;10.96;100.00;101875.63;5045030;28;20042;-64
2024/03/22 01:35:35;;;;;;;42.25;29.98;;;;;;;10.96;100.00;101878.28;5040863;28;20061;-65
2024/03/22 01:38:00;;;;;;;41.28;28.40;;;;;;;10.95;100.00;101865.03;5044331;28;20041;-64
2024/03/22 01:40:25;;;;;;;41.97;28.98;;;;;;;10.95;100.00;101860.66;5042785;28;20025;-65
2024/03/22 01:42:57;;;;;;;42.15;28.70;;;;;;;10.98;100.00;101860.69;5046366;28;20036;-65
2024/03/22 01:45:26;;;;;;;42.58;30.58;;;;;;;10.90;100.00;101867.59;5038967;28;20033;-70
2024/03/22 01:47:54;;;;;;;41.92;29.67;;;;;;;10.81;100.00;101865.66;5038923;28;20401;-69
2024/03/22 01:50:21;;;;;;;42.15;29.50;;;;;;;10.77;100.00;101852.34;5038973;28;20033;-69
2024/03/22 01:52:47;;;;;;;41.50;28.92;;;;;;;10.76;100.00;101855.84;5045559;28;20033;-78
2024/03/22 01:55:13;;;;;;;41.45;29.98;;;;;;;10.75;100.00;101852.31;5043709;28;20025;-75
2024/03/22 01:57:39;;;;;;;42.45;29.50;;;;;;;10.77;100.00;101857.63;5044188;28;20116;-65
2024/03/22 02:00:06;;;;;;;43.80;29.83;;;;;;;10.74;100.00;101862.88;5044012;28;20040;-65
2024/03/22 02:02:31;;;;;;;41.50;28.92;;;;;;;10.65;100.00;101863.56;5043005;28;20099;-66
2024/03/22 02:04:56;;;;;;;41.13;29.02;;;;;;;10.62;100.00;101874.09;5045193;28;20472;-67
2024/03/22 02:07:22;;;;;;;41.17;28.77;;;;;;;10.57;100.00;101871.38;5040788;28;20079;-67
2024/03/22 02:09:48;;;;;;;41.33;28.92;;;;;;;10.53;100.00;101866.88;5045227;28;20057;-65
2024/03/22 02:12:13;;;;;;;42.80;29.70;;;;;;;10.46;100.00;101859.66;5042932;28;20029;-64
2024/03/22 02:14:39;;;;;;;42.97;29.48;;;;;;;10.49;100.00;101866.78;5043783;28;20037;-66
2024/03/22 02:17:04;;;;;;;43.63;30.17;;;;;;;10.47;100.00;101861.47;5042685;28;20115;-64
2024/03/22 02:19:30;;;;;;;41.45;28.52;;;;;;;10.51;100.00;101855.34;5042429;28;20116;-64
2024/03/22 02:21:55;;;;;;;41.50;29.13;;;;;;;10.40;100.00;101852.50;5045082;28;20107;-64
2024/03/22 02:24:20;;;;;;;42.45;29.08;;;;;;;10.39;100.00;101853.34;5041657;28;20029;-65
2024/03/22 02:26:46;;;;;;;43.55;28.77;;;;;;;10.38;100.00;101842.75;5044307;28;20049;-66
2024/03/22 02:29:11;;;;;;;39.85;28.50;;;;;;;10.39;100.00;101847.19;5042780;28;20586;-65
2024/03/22 02:31:36;;;;;;;42.72;30.42;;;;;;;10.42;100.00;101844.59;5043409;28;20036;-64
2024/03/22 02:34:02;;;;;;;41.53;29.42;;;;;;;10.41;100.00;101853.38;5044148;28;20079;-65
2024/03/22 02:36:28;;;;;;;42.10;29.92;;;;;;;10.38;100.00;101843.66;5041846;28;20034;-65
2024/03/22 02:38:54;;;;;;;40.85;29.25;;;;;;;10.40;100.00;101846.31;5044997;28;20496;-64
2024/03/22 02:41:19;;;;;;;41.58;30.25;;;;;;;10.45;100.00;101847.28;5042642;28;20044;-77
2024/03/22 02:43:45;;;;;;;42.90;29.95;;;;;;;10.46;100.00;101847.31;5044764;28;20129;-75
2024/03/22 02:46:10;;;;;;;42.33;28.83;;;;;;;10.45;100.00;101836.72;5043324;28;20060;-73
2024/03/22 02:48:35;;;;;;;41.33;31.55;;;;;;;10.49;100.00;101833.28;5041773;28;20037;-76
2024/03/22 02:51:01;;;;;;;40.33;28.52;;;;;;;10.50;100.00;101826.22;5043596;28;20024;-75
2024/03/22 02:53:26;;;;;;;41.78;29.20;;;;;;;10.45;100.00;101821.75;5041908;28;20033;-77
2024/03/22 02:55:51;;;;;;;41.17;28.58;;;;;;;10.44;100.00;101808.50;5043865;28;20024;-77
2024/03/22 02:58:19;;;;;;;40.70;28.85;;;;;;;10.43;100.00;101794.41;5042634;28;20039;-80
2024/03/22 03:00:45;;;;;;;40.00;28.58;;;;;;;10.51;100.00;101788.38;5044534;28;20029;-74
2024/03/22 03:03:10;;;;;;;40.10;27.48;;;;;;;10.58;100.00;101783.22;5041938;28;20025;-65
2024/03/22 03:05:35;;;;;;;39.58;27.45;;;;;;;10.53;100.00;101787.56;5043306;28;20038;-78
2024/03/22 03:08:01;;;;;;;39.78;27.42;;;;;;;10.49;100.00;101787.47;5044075;28;20074;-80
2024/03/22 03:10:26;;;;;;;40.83;27.63;;;;;;;10.39;100.00;101796.97;5041386;28;20033;-78
2024/03/22 03:12:54;;;;;;;40.50;28.10;;;;;;;10.36;100.00;101791.63;5044601;28;20099;-74
2024/03/22 03:15:19;;;;;;;40.47;28.15;;;;;;;10.32;100.00;101787.09;5041129;28;20120;-70
2024/03/22 03:17:45;;;;;;;38.83;27.75;;;;;;;10.27;100.00;101781.72;5042282;28;20159;-67
2024/03/22 03:20:13;;;;;;;39.72;27.45;;;;;;;10.19;100.00;101778.88;5042390;28;20029;-68
2024/03/22 03:22:39;;;;;;;41.05;28.10;;;;;;;10.17;100.00;101780.63;5042498;28;20034;-65
2024/03/22 03:25:05;;;;;;;38.92;27.90;;;;;;;10.21;100.00;101768.38;5042744;28;20045;-65
2024/03/22 03:27:31;;;;;;;39.63;27.50;;;;;;;10.16;100.00;101764.72;5041697;28;20120;-65
2024/03/22 03:29:56;;;;;;;38.58;26.50;;;;;;;10.21;100.00;101756.03;5043983;28;20025;-65
2024/03/22 03:32:22;;;;;;;40.40;27.88;;;;;;;10.22;100.00;101756.94;5041124;28;20383;-65
2024/03/22 03:34:47;;;;;;;40.17;27.52;;;;;;;10.18;100.00;101749.78;5043997;28;20036;-65
2024/03/22 03:37:14;;;;;;;38.38;27.83;;;;;;;10.08;100.00;101749.63;5041550;28;20029;-65
2024/03/22 03:39:39;;;;;;;41.05;28.48;;;;;;;10.10;100.00;101747.88;5042862;28;20040;-64
2024/03/22 03:42:05;;;;;;;38.15;26.88;;;;;;;10.05;100.00;101752.19;5042961;28;20120;-64
2024/03/22 03:44:30;;;;;;;39.08;27.83;;;;;;;10.05;100.00;101744.28;5041119;28;20029;-64
2024/03/22 03:46:56;;;;;;;38.78;26.35;;;;;;;10.04;100.00;101739.84;5042898;28;20128;-65
2024/03/22 03:49:21;;;;;;;39.75;28.05;;;;;;;10.05;100.00;101739.00;5036298;28;20030;-64
2024/03/22 03:51:46;;;;;;;38.50;27.13;;;;;;;10.05;100.00;101744.28;5043171;28;20021;-65
2024/03/22 03:54:12;;;;;;;38.67;27.52;;;;;;;10.03;100.00;101743.38;5041797;28;20472;-65
2024/03/22 03:56:37;;;;;;;40.20;27.55;;;;;;;9.97;100.00;101735.28;5041872;28;20100;-65
2024/03/22 03:59:02;;;;;;;38.80;27.60;;;;;;;9.94;100.00;101729.94;5043059;28;20085;-65
2024/03/22 04:01:27;;;;;;;39.08;27.77;;;;;;;9.91;100.00;101729.88;5043931;28;20029;-66
2024/03/22 04:03:53;;;;;;;41.33;28.10;;;;;;;9.89;100.00;101728.97;5047763;28;20124;-65
2024/03/22 04:06:18;;;;;;;40.38;28.30;;;;;;;9.90;100.00;101722.81;5043290;28;20029;-68
2024/03/22 04:08:44;;;;;;;40.35;27.73;;;;;;;9.87;100.00;101717.47;5046907;28;20064;-66
2024/03/22 04:11:09;;;;;;;38.55;27.23;;;;;;;9.85;100.00;101727.13;5045817;28;20025;-65
2024/03/22 04:13:34;;;;;;;38.45;27.45;;;;;;;9.87;100.00;101728.03;5045458;28;20033;-65
2024/03/22 04:16:00;;;;;;;39.03;27.77;;;;;;;9.88;100.00;101724.53;5045792;28;20029;-65
2024/03/22 04:18:25;;;;;;;38.28;27.20;;;;;;;9.86;100.00;101716.59;5043985;28;20029;-65
2024/03/22 04:20:55;;;;;;;39.60;27.52;;;;;;;9.88;100.00;101717.50;5047481;28;20033;-66
2024/03/22 04:23:21;;;;;;;40.10;27.80;;;;;;;9.87;100.00;101725.38;5047585;28;20033;-66
2024/03/22 04:25:58;;;;;;;38.97;27.63;;;;;;;9.86;100.00;101724.50;5044490;28;20115;-65
2024/03/22 04:28:24;;;;;;;38.33;27.70;;;;;;;9.85;100.00;101730.63;5047352;28;20099;-64
2024/03/22 04:30:58;;;;;;;39.47;28.35;;;;;;;9.84;100.00;101728.84;5044343;28;20030;-75
2024/03/22 04:33:23;;;;;;;41.00;27.13;;;;;;;9.86;100.00;101726.22;5047296;28;20017;-75
2024/03/22 04:35:49;;;;;;;37.00;26.55;;;;;;;9.86;100.00;101732.44;5044592;28;20029;-69
2024/03/22 04:38:14;;;;;;;37.95;26.67;;;;;;;9.84;100.00;101731.50;5046534;28;20199;-74
2024/03/22 04:40:40;;;;;;;38.50;27.15;;;;;;;9.81;100.00;101718.22;5045352;28;20067;-68
2024/03/22 04:43:06;;;;;;;37.40;27.38;;;;;;;9.77;100.00;101716.38;5045302;28;20380;-76
2024/03/22 04:45:31;;;;;;;37.28;26.80;;;;;;;9.81;100.00;101722.63;5046789;28;20125;-74
2024/03/22 04:47:56;;;;;;;37.88;27.13;;;;;;;9.80;100.00;101723.47;5044140;28;20469;-68
2024/03/22 04:50:22;;;;;;;38.22;27.10;;;;;;;9.79;100.00;101722.59;5046951;28;20036;-70
2024/03/22 04:52:47;;;;;;;37.83;27.20;;;;;;;9.81;100.00;101722.63;5044799;28;20064;-72
2024/03/22 04:55:13;;;;;;;38.15;27.35;;;;;;;9.77;100.00;101711.09;5046108;28;20091;-79
2024/03/22 04:57:38;;;;;;;37.78;26.27;;;;;;;9.75;100.00;101712.81;5045819;28;20079;-79
2024/03/22 05:00:04;;;;;;;37.03;25.85;;;;;;;9.79;100.00;101708.50;5044917;28;20026;-79
2024/03/22 05:02:30;;;;;;;38.08;26.00;;;;;;;9.77;100.00;101705.81;5047228;28;20069;-80
2024/03/22 05:04:55;;;;;;;36.40;24.63;;;;;;;9.79;100.00;101696.19;5044234;28;20060;-78
2024/03/22 05:07:21;;;;;;;36.97;25.55;;;;;;;9.80;100.00;101695.34;5046362;28;20369;-65
2024/03/22 05:09:46;;;;;;;37.42;25.90;;;;;;;9.75;100.00;101686.41;5043814;28;20658;-66
2024/03/22 05:12:11;;;;;;;35.97;25.20;;;;;;;9.76;100.00;101697.00;5044200;28;20065;-64
2024/03/22 05:14:37;;;;;;;35.38;24.33;;;;;;;9.73;100.00;101694.31;5045146;28;20447;-65
2024/03/22 05:17:02;;;;;;;35.80;24.95;;;;;;;9.66;100.00;101696.78;5042291;28;20095;-65
2024/03/22 05:19:27;;;;;;;37.63;26.08;;;;;;;9.65;100.00;101693.22;5046395;28;20082;-65
2024/03/22 05:21:52;;;;;;;36.75;25.55;;;;;;;9.62;100.00;101684.38;5042755;28;20033;-65
2024/03/22 05:24:18;;;;;;;36.13;24.80;;;;;;;9.62;100.00;101682.63;5045621;28;20062;-65
2024/03/22 05:26:43;;;;;;;36.50;25.35;;;;;;;9.62;100.00;101690.53;5043932;28;20053;-66
2024/03/22 05:29:08;;;;;;;37.38;24.48;;;;;;;9.60;100.00;101682.59;5043163;28;20026;-65
2024/03/22 05:31:46;;;;;;;35.35;23.85;;;;;;;9.60;100.00;101682.59;5046250;28;20034;-66
2024/03/22 05:34:11;;;;;;;35.38;24.50;;;;;;;9.58;100.00;101683.41;5043043;28;20032;-65
2024/03/22 05:36:36;;;;;;;35.40;23.63;;;;;;;9.57;100.00;101674.59;5043753;28;20044;-65
2024/03/22 05:39:02;;;;;;;35.65;24.02;;;;;;;9.61;100.00;101678.22;5045467;28;20037;-66
2024/03/22 05:41:27;;;;;;;35.50;23.92;;;;;;;9.61;100.00;101680.84;5042727;28;20455;-68
2024/03/22 05:43:52;;;;;;;34.53;23.92;;;;;;;9.59;100.00;101686.06;5045984;28;20033;-66
2024/03/22 05:46:18;;;;;;;34.05;22.45;;;;;;;9.57;100.00;101679.88;5043231;28;20038;-65
2024/03/22 05:48:43;;;;;;;34.58;23.00;;;;;;;9.62;100.00;101676.44;5044713;28;20026;-65
2024/03/22 05:51:08;;;;;;;32.83;21.55;;;;;;;9.62;100.00;101674.69;5044073;28;20036;-66
2024/03/22 05:53:34;;;;;;;33.47;22.60;;;;;;;9.59;100.00;101672.00;5042161;28;20041;-65
2024/03/22 05:56:00;;;;;;;33.00;21.48;;;;;;;9.59;100.00;101672.00;5045778;28;20104;-66
2024/03/22 05:58:25;;;;;;;33.75;22.17;;;;;;;9.59;100.00;101666.72;5042344;28;20036;-64
2024/03/22 06:00:50;;;;;;;33.17;21.23;;;;;;;9.62;100.00;101660.63;5045494;28;20579;-65
2024/03/22 06:03:16;;;;;;;34.03;21.98;;;;;;;9.58;100.00;101657.91;5041604;28;20036;-65
2024/03/22 06:05:41;;;;;;;32.70;21.60;;;;;;;9.60;100.00;101657.94;5044195;28;20026;-68
2024/03/22 06:08:07;;;;;;;31.40;20.30;;;;;;;9.60;100.00;101660.59;5044545;28;20056;-65
2024/03/22 06:10:33;;;;;;;33.15;21.10;;;;;;;9.62;100.00;101666.78;5042779;28;20029;-65
2024/03/22 06:12:58;;;;;;;31.95;20.85;;;;;;;9.60;100.00;101671.16;5045306;28;20051;-65
2024/03/22 06:15:23;;;;;;;31.60;20.30;;;;;;;9.60;100.00;101676.41;5042330;28;20029;-64
2024/03/22 06:17:50;;;;;;;32.28;20.40;;;;;;;9.57;100.00;101664.03;5044570;28;20090;-65
2024/03/22 06:20:15;;;;;;;32.08;20.52;;;;;;;9.58;100.00;101673.75;5042734;28;20035;-65
2024/03/22 06:22:40;;;;;;;31.13;19.85;;;;;;;9.60;100.00;101663.22;5043240;28;20029;-66
2024/03/22 06:25:06;;;;;;;31.25;19.55;;;;;;;9.63;100.00;101660.66;5043968;28;20071;-65
2024/03/22 06:27:31;;;;;;;31.27;19.90;;;;;;;9.66;100.00;101666.00;5042221;28;20108;-64
2024/03/22 06:29:56;;;;;;;30.65;19.33;;;;;;;9.68;100.00;101660.72;5045244;28;20540;-64
2024/03/22 06:32:22;;;;;;;30.95;18.70;;;;;;;9.69;100.00;101655.47;5040315;28;20144;-65
2024/03/22 06:34:47;;;;;;;31.52;19.60;;;;;;;9.71;100.00;101663.44;5044244;28;20115;-65
2024/03/22 06:37:12;;;;;;;30.58;18.45;;;;;;;9.66;100.00;101659.81;5043061;28;20032;-65
2024/03/22 06:39:38;;;;;;;29.77;18.13;;;;;;;9.65;100.00;101658.03;5042936;28;20036;-65
2024/03/22 06:42:03;;;;;;;28.00;17.27;;;;;;;9.63;100.00;101659.75;5044204;28;20025;-65
2024/03/22 06:44:29;;;;;;;28.10;16.60;;;;;;;9.65;100.00;101665.97;5041634;28;20025;-65
2024/03/22 06:46:54;;;;;;;29.10;16.63;;;;;;;9.65;100.00;101658.91;5044798;28;20056;-65
2024/03/22 06:49:19;;;;;;;28.15;17.45;;;;;;;9.69;100.00;101660.75;5041769;28;20033;-66
2024/03/22 06:51:45;;;;;;;29.20;16.60;;;;;;;9.73;100.00;101661.75;5042462;28;20041;-66
2024/03/22 06:54:10;;;;;;;27.58;16.42;;;;;;;9.75;100.00;101657.38;5042666;28;20395;-66
2024/03/22 06:56:35;;;;;;;28.42;16.95;;;;;;;9.76;100.00;101667.97;5042267;28;20033;-66
2024/03/22 06:59:01;;;;;;;27.95;16.88;;;;;;;9.76;100.00;101659.16;5044253;28;20391;-65
2024/03/22 07:01:26;;;;;;;29.85;17.13;;;;;;;9.74;100.00;101663.50;5039637;28;20053;-64
2024/03/22 07:03:52;;;;;;;27.65;16.92;;;;;;;9.73;100.00;101659.97;5044250;28;20083;-65
2024/03/22 07:06:18;;;;;;;28.45;17.48;;;;;;;9.71;100.00;101667.00;5041672;28;20031;-64
2024/03/22 07:08:43;;;;;;;28.73;17.13;;;;;;;9.73;100.00;101652.06;5042817;28;20419;-64
2024/03/22 07:11:09;;;;;;;28.20;17.30;;;;;;;9.75;100.00;101654.72;5042012;28;20029;-64
2024/03/22 07:13:34;;;;;;;27.40;16.45;;;;;;;9.82;100.00;101654.00;5041931;28;20029;-64
2024/03/22 07:16:00;;;;;;;29.30;17.60;;;;;;;9.91;100.00;101655.94;5044191;28;20108;-64
2024/03/22 07:18:26;;;;;;;28.83;17.50;;;;;;;9.98;100.00;101649.03;5023066;28;20087;-80
2024/03/22 07:20:51;;;;;;;28.73;16.83;;;;;;;10.07;100.00;101642.16;5042881;28;20086;-78
2024/03/22 07:23:17;;;;;;;27.90;17.15;;;;;;;10.14;100.00;101650.22;5040907;28;20032;-79
2024/03/22 07:25:45;;;;;;;28.25;17.90;;;;;;;10.20;100.00;101659.13;5042592;28;20053;-80
2024/03/22 07:28:10;;;;;;;30.25;18.63;;;;;;;10.23;100.00;101655.66;5042640;28;20033;-80
2024/03/22 07:30:36;;;;;;;28.95;18.65;;;;;;;10.15;100.00;101644.03;5042438;28;20036;-80
2024/03/22 07:33:02;;;;;;;29.48;19.13;;;;;;;10.08;100.00;101646.59;5043774;28;20036;-77
2024/03/22 07:35:28;;;;;;;29.23;18.50;;;;;;;10.02;100.00;101657.03;5044129;28;20384;-80
2024/03/22 07:37:53;;;;;;;29.55;19.58;;;;;;;9.99;100.00;101656.06;5040985;28;20068;-77
2024/03/22 07:40:20;;;;;;;29.00;18.85;;;;;;;10.07;100.00;101657.13;5043259;28;20183;-73
2024/03/22 07:42:45;;;;;;;29.50;19.05;;;;;;;10.08;100.00;101654.50;5041694;28;20036;-76
2024/03/22 07:45:11;;;;;;;28.75;18.15;;;;;;;10.17;100.00;101639.69;5042764;28;20038;-71
2024/03/22 07:47:37;;;;;;;29.65;19.23;;;;;;;10.25;100.00;101649.56;5042988;28;20465;-74
2024/03/22 07:50:03;;;;;;;30.08;19.83;;;;;;;10.35;100.00;101637.41;5041220;28;20032;-77
2024/03/22 07:52:28;;;;;;;29.35;19.33;;;;;;;10.42;100.00;101641.06;5044234;28;20382;-74
2024/03/22 07:54:53;;;;;;;28.65;19.45;;;;;;;10.41;100.00;101641.91;5039349;28;20034;-77
2024/03/22 07:57:20;;;;;;;29.38;19.83;;;;;;;10.48;100.00;101640.28;5044034;28;20035;-68
2024/03/22 07:59:45;;;;;;;29.10;19.75;;;;;;;10.55;100.00;101634.25;5042022;28;20025;-68
2024/03/22 08:02:11;;;;;;;28.98;19.90;;;;;;;10.64;100.00;101634.38;5042029;28;20488;-66
2024/03/22 08:04:36;;;;;;;28.52;18.92;;;;;;;10.72;100.00;101631.88;5042992;28;20454;-67
2024/03/22 08:07:01;;;;;;;29.73;19.20;;;;;;;10.81;100.00;101634.66;5040756;28;20041;-66
2024/03/22 08:09:27;;;;;;;29.38;19.38;;;;;;;10.92;100.00;101634.81;5043813;28;20368;-65
2024/03/22 08:11:52;;;;;;;29.08;19.52;;;;;;;10.91;100.00;101627.78;5040698;28;20039;-69
2024/03/22 08:14:17;;;;;;;28.20;18.80;;;;;;;10.75;100.00;101638.09;5043110;28;20041;-64
2024/03/22 08:16:43;;;;;;;28.55;19.70;;;;;;;10.70;100.00;101639.75;5042099;28;20029;-72
2024/03/22 08:19:08;;;;;;;30.35;20.42;;;;;;;10.74;100.00;101636.31;5040514;28;20060;-68
2024/03/22 08:21:34;;;;;;;28.95;19.42;;;;;;;10.71;100.00;101630.97;5043178;28;20033;-66
2024/03/22 08:23:59;;;;;;;29.38;20.00;;;;;;;10.70;100.00;101634.47;5040331;28;20044;-69
2024/03/22 08:26:25;;;;;;;28.80;19.40;;;;;;;10.63;100.00;101640.56;5042210;28;20060;-66
2024/03/22 08:28:50;;;;;;;28.67;19.70;;;;;;;10.57;100.00;101645.72;5040631;28;20026;-65
2024/03/22 08:31:16;;;;;;;29.08;19.17;;;;;;;10.56;100.00;101649.25;5042615;28;20167;-70
2024/03/22 08:33:42;;;;;;;28.88;19.30;;;;;;;10.57;100.00;101633.41;5040612;28;20036;-66
2024/03/22 08:36:07;;;;;;;29.08;19.67;;;;;;;10.49;100.00;101640.31;5041172;28;20033;-65
2024/03/22 08:38:33;;;;;;;28.83;19.50;;;;;;;10.50;100.00;101642.09;5042875;28;20029;-65
2024/03/22 08:40:59;;;;;;;29.17;19.85;;;;;;;10.45;100.00;101638.47;5040407;28;20051;-65
2024/03/22 08:43:25;;;;;;;29.08;19.85;;;;;;;10.45;100.00;101628.78;5043166;28;20486;-65
2024/03/22 08:45:51;;;;;;;29.02;19.48;;;;;;;10.49;100.00;101640.31;5041246;28;20084;-65
2024/03/22 08:48:17;;;;;;;29.23;19.48;;;;;;;10.53;100.00;101622.72;5046204;28;20026;-65
2024/03/22 08:50:43;;;;;;;28.60;18.02;;;;;;;10.56;100.00;101623.69;5045121;28;20380;-64
2024/03/22 08:53:09;;;;;;;30.52;19.17;;;;;;;10.69;100.00;101619.50;5044815;28;20041;-64
2024/03/22 08:55:34;;;;;;;28.40;17.70;;;;;;;10.77;100.00;101609.91;5046148;28;20025;-64
2024/03/22 08:57:59;;;;;;;28.15;18.20;;;;;;;10.70;100.00;101621.25;5039383;28;20072;-65
2024/03/22 09:00:24;;;;;;;28.00;17.98;;;;;;;10.73;100.00;101623.06;5045339;28;20061;-65
2024/03/22 09:02:50;;;;;;;27.63;17.92;;;;;;;10.73;100.00;101618.69;5044363;28;20156;-64
2024/03/22 09:05:16;;;;;;;27.60;17.80;;;;;;;10.70;100.00;101620.38;5044772;28;20534;-65
2024/03/22 09:07:42;;;;;;;28.80;17.90;;;;;;;10.69;100.00;101621.22;5045774;28;20024;-64
2024/03/22 09:10:07;;;;;;;28.85;18.98;;;;;;;10.74;100.00;101616.91;5043562;28;20029;-64
2024/03/22 09:12:33;;;;;;;28.15;18.00;;;;;;;10.70;100.00;101623.03;5046516;28;20044;-65
2024/03/22 09:14:58;;;;;;;28.40;17.83;;;;;;;10.61;100.00;101613.19;5043130;28;20095;-65
2024/03/22 09:17:23;;;;;;;27.73;17.58;;;;;;;10.63;100.00;101600.91;5045664;28;20083;-65
2024/03/22 09:19:49;;;;;;;26.70;17.25;;;;;;;10.64;100.00;101615.88;5044191;28;20029;-65
2024/03/22 09:22:15;;;;;;;27.95;16.92;;;;;;;10.63;100.00;101616.75;5044605;28;20061;-76
2024/03/22 09:24:40;;;;;;;26.65;16.70;;;;;;;10.61;100.00;101618.47;5044185;28;20021;-68
2024/03/22 09:27:09;;;;;;;27.48;16.45;;;;;;;10.62;100.00;101610.56;5043367;28;20033;-66
2024/03/22 09:29:35;;;;;;;26.02;15.38;;;;;;;10.60;100.00;101614.03;5046170;28;20052;-69
2024/03/22 09:32:02;;;;;;;25.02;14.30;;;;;;;10.63;100.00;101606.19;5043063;28;20065;-73
2024/03/22 09:34:28;;;;;;;25.77;14.55;;;;;;;10.68;100.00;101601.84;5045864;28;20021;-65
2024/03/22 09:36:53;;;;;;;24.70;14.10;;;;;;;10.69;100.00;101601.00;5043664;28;20108;-65
2024/03/22 09:39:18;;;;;;;25.55;14.02;;;;;;;10.70;100.00;101594.81;5045307;28;20120;-67
2024/03/22 09:41:44;;;;;;;25.48;14.93;;;;;;;10.72;100.00;101587.81;5044935;28;20116;-77
2024/03/22 09:44:16;;;;;;;24.35;14.10;;;;;;;10.81;100.00;101584.41;5043568;28;20053;-68
2024/03/22 09:46:42;;;;;;;23.90;14.10;;;;;;;10.81;100.00;101582.66;5044997;28;20033;-65
2024/03/22 09:49:11;;;;;;;24.70;14.73;;;;;;;10.82;100.00;101591.50;5042976;28;20499;-77
2024/03/22 09:51:37;;;;;;;25.67;14.02;;;;;;;10.78;100.00;101594.94;5044754;28;20021;-66
2024/03/22 09:54:03;;;;;;;25.10;14.63;;;;;;;10.76;100.00;101592.28;5042769;28;20044;-65
2024/03/22 09:56:30;;;;;;;25.52;14.18;;;;;;;10.74;100.00;101588.72;5045890;28;20033;-70
2024/03/22 09:58:57;;;;;;;24.85;14.00;;;;;;;10.75;100.00;101582.56;5042205;28;20021;-68
2024/03/22 10:01:23;;;;;;;24.55;14.00;;;;;;;10.76;100.00;101591.38;5045151;28;20042;-72
2024/03/22 10:03:51;;;;;;;24.10;13.88;;;;;;;10.83;100.00;101574.72;5044448;28;20029;-64
2024/03/22 10:06:17;;;;;;;25.60;13.25;;;;;;;10.88;100.00;101590.66;5043963;28;20026;-66
2024/03/22 10:08:42;;;;;;;24.65;13.40;;;;;;;10.86;100.00;101576.53;5043176;28;20032;-66
2024/03/22 10:11:08;;;;;;;25.50;13.55;;;;;;;10.95;100.00;101588.16;5041253;28;20427;-65
2024/03/22 10:13:33;;;;;;;25.00;13.85;;;;;;;10.96;100.00;101581.97;5045459;28;20028;-64
2024/03/22 10:15:58;;;;;;;24.77;14.23;;;;;;;10.98;100.00;101577.63;5041928;28;20037;-65
2024/03/22 10:18:24;;;;;;;24.90;14.25;;;;;;;11.02;100.00;101578.53;5044706;28;20037;-66
2024/03/22 10:21:02;;;;;;;25.48;14.98;;;;;;;10.99;100.00;101578.50;5043219;28;20112;-65
2024/03/22 10:23:29;;;;;;;25.00;14.20;;;;;;;10.95;100.00;101572.28;5043533;28;20017;-66
2024/03/22 10:25:55;;;;;;;23.98;14.25;;;;;;;10.98;100.00;101576.75;5042126;28;20076;-65
2024/03/22 10:28:21;;;;;;;25.85;14.90;;;;;;;11.02;100.00;101581.19;5035367;28;20087;-65
2024/03/22 10:30:50;;;;;;;26.90;14.77;;;;;;;11.02;100.00;101588.25;5044077;28;20038;-73
2024/03/22 10:33:16;;;;;;;24.92;13.85;;;;;;;10.99;100.00;101575.84;5044915;28;20353;-65
2024/03/22 10:35:44;;;;;;;25.83;14.95;;;;;;;11.09;100.00;101574.22;5042061;28;20115;-64
2024/03/22 10:38:12;;;;;;;26.88;15.32;;;;;;;11.06;100.00;101574.19;5042640;28;20032;-65
2024/03/22 10:40:40;;;;;;;25.70;15.15;;;;;;;10.97;100.00;101569.66;5042042;28;20146;-65
2024/03/22 10:43:10;;;;;;;26.52;15.68;;;;;;;11.01;100.00;101566.19;5042839;28;20034;-70
2024/03/22 10:45:37;;;;;;;25.85;15.68;;;;;;;10.96;100.00;101575.81;5044227;28;20029;-80
2024/03/22 10:48:09;;;;;;;25.35;16.17;;;;;;;10.95;100.00;101569.66;5040671;28;20037;-75
2024/03/22 10:50:38;;;;;;;25.93;15.77;;;;;;;11.06;100.00;101572.44;5044026;28;20029;-73
2024/03/22 10:53:07;;;;;;;25.60;16.45;;;;;;;10.93;100.00;101563.41;5042090;28;20025;-71
2024/03/22 10:55:38;;;;;;;27.25;17.35;;;;;;;10.85;100.00;101585.34;5044287;28;20035;-78
2024/03/22 10:58:04;;;;;;;27.58;18.27;;;;;;;10.67;100.00;101575.38;5041944;28;20030;-81